sensor_id;sensor_type;location;lat;lon;timestamp;temperature;humidity
56137;DHT22;42008;52.934;5.884;2022-07-01T00:00:56;15.10;99.90
56137;DHT22;42008;52.934;5.884;2022-07-01T00:03:21;15.00;99.90
56137;DHT22;42008;52.934;5.884;2022-07-01T00:05:47;14.40;99.90
56137;DHT22;42008;52.934;5.884;2022-07-01T00:08:12;15.30;99.90
56137;DHT22;42008;52.934;5.884;2022-07-01T00:10:38;15.00;99.90
56137;DHT22;42008;52.934;5.884;2022-07-01T00:13:04;15.20;99.90
56137;DHT22;42008;52.934;5.884;2022-07-01T00:15:31;14.70;99.90
56137;DHT22;42008;52.934;5.884;2022-07-01T00:17:57;15.10;99.90
56137;DHT22;42008;52.934;5.884;2022-07-01T00:20:23;15.40;99.90
56137;DHT22;42008;52.934;5.884;2022-07-01T00:22:48;14.80;99.90
56137;DHT22;42008;52.934;5.884;2022-07-01T00:25:14;14.70;99.90
56137;DHT22;42008;52.934;5.884;2022-07-01T00:27:40;14.00;99.90
56137;DHT22;42008;52.934;5.884;2022-07-01T00:30:07;14.90;99.90
56137;DHT22;42008;52.934;5.884;2022-07-01T00:32:33;14.90;99.90
56137;DHT22;42008;52.934;5.884;2022-07-01T00:34:59;15.00;99.90
56137;DHT22;42008;52.934;5.884;2022-07-01T00:37:24;15.20;99.90
56137;DHT22;42008;52.934;5.884;2022-07-01T00:39:50;15.20;99.90
56137;DHT22;42008;52.934;5.884;2022-07-01T00:42:15;14.70;99.90
56137;DHT22;42008;52.934;5.884;2022-07-01T00:44:41;15.50;99.90
56137;DHT22;42008;52.934;5.884;2022-07-01T00:47:11;14.80;99.90
56137;DHT22;42008;52.934;5.884;2022-07-01T00:49:38;14.80;99.90
56137;DHT22;42008;52.934;5.884;2022-07-01T00:52:05;15.00;99.90
56137;DHT22;42008;52.934;5.884;2022-07-01T00:54:35;14.80;99.90
56137;DHT22;42008;52.934;5.884;2022-07-01T00:57:07;14.00;99.90
56137;DHT22;42008;52.934;5.884;2022-07-01T00:59:32;14.50;99.90
56137;DHT22;42008;52.934;5.884;2022-07-01T01:02:00;15.40;99.90
56137;DHT22;42008;52.934;5.884;2022-07-01T01:04:25;14.00;99.90
56137;DHT22;42008;52.934;5.884;2022-07-01T01:06:51;14.90;99.90
56137;DHT22;42008;52.934;5.884;2022-07-01T01:09:17;15.40;99.90
56137;DHT22;42008;52.934;5.884;2022-07-01T01:11:42;15.20;99.90
56137;DHT22;42008;52.934;5.884;2022-07-01T01:14:08;15.20;99.90
56137;DHT22;42008;52.934;5.884;2022-07-01T01:16:34;15.20;99.90
56137;DHT22;42008;52.934;5.884;2022-07-01T01:19:05;14.90;99.90
56137;DHT22;42008;52.934;5.884;2022-07-01T01:21:31;14.20;99.90
56137;DHT22;42008;52.934;5.884;2022-07-01T01:23:57;14.90;99.90
56137;DHT22;42008;52.934;5.884;2022-07-01T01:26:24;13.80;99.90
56137;DHT22;42008;52.934;5.884;2022-07-01T01:28:51;15.00;99.90
56137;DHT22;42008;52.934;5.884;2022-07-01T01:31:17;15.30;99.90
56137;DHT22;42008;52.934;5.884;2022-07-01T01:33:43;15.10;99.90
56137;DHT22;42008;52.934;5.884;2022-07-01T01:36:09;15.10;99.90
56137;DHT22;42008;52.934;5.884;2022-07-01T01:38:35;13.80;99.90
56137;DHT22;42008;52.934;5.884;2022-07-01T01:41:03;14.60;99.90
56137;DHT22;42008;52.934;5.884;2022-07-01T01:43:29;14.80;99.90
56137;DHT22;42008;52.934;5.884;2022-07-01T01:45:54;15.00;99.90
56137;DHT22;42008;52.934;5.884;2022-07-01T01:48:20;15.00;99.90
56137;DHT22;42008;52.934;5.884;2022-07-01T01:50:46;15.00;99.90
56137;DHT22;42008;52.934;5.884;2022-07-01T01:53:11;14.80;99.90
56137;DHT22;42008;52.934;5.884;2022-07-01T01:55:37;14.00;99.90
56137;DHT22;42008;52.934;5.884;2022-07-01T01:58:02;14.70;99.90
56137;DHT22;42008;52.934;5.884;2022-07-01T02:00:28;15.20;99.90
56137;DHT22;42008;52.934;5.884;2022-07-01T02:02:54;14.80;99.90
56137;DHT22;42008;52.934;5.884;2022-07-01T02:05:19;13.70;99.90
56137;DHT22;42008;52.934;5.884;2022-07-01T02:07:45;15.00;99.90
56137;DHT22;42008;52.934;5.884;2022-07-01T02:10:11;15.00;99.90
56137;DHT22;42008;52.934;5.884;2022-07-01T02:12:36;14.70;97.70
56137;DHT22;42008;52.934;5.884;2022-07-01T02:15:02;16.10;98.50
56137;DHT22;42008;52.934;5.884;2022-07-01T02:17:27;14.30;95.20
56137;DHT22;42008;52.934;5.884;2022-07-01T02:19:53;15.00;96.20
56137;DHT22;42008;52.934;5.884;2022-07-01T02:22:19;14.50;94.80
56137;DHT22;42008;52.934;5.884;2022-07-01T02:24:44;15.10;97.20
56137;DHT22;42008;52.934;5.884;2022-07-01T02:27:10;13.80;92.70
56137;DHT22;42008;52.934;5.884;2022-07-01T02:29:37;15.10;95.20
56137;DHT22;42008;52.934;5.884;2022-07-01T02:32:03;14.90;95.40
56137;DHT22;42008;52.934;5.884;2022-07-01T02:34:29;14.80;93.80
56137;DHT22;42008;52.934;5.884;2022-07-01T02:36:55;15.00;92.30
56137;DHT22;42008;52.934;5.884;2022-07-01T02:39:21;14.90;84.00
56137;DHT22;42008;52.934;5.884;2022-07-01T02:41:47;15.60;78.60
56137;DHT22;42008;52.934;5.884;2022-07-01T02:44:31;15.10;73.70
56137;DHT22;42008;52.934;5.884;2022-07-01T02:46:57;14.90;75.50
56137;DHT22;42008;52.934;5.884;2022-07-01T02:49:23;14.80;72.10
56137;DHT22;42008;52.934;5.884;2022-07-01T02:51:48;15.10;61.00
56137;DHT22;42008;52.934;5.884;2022-07-01T02:54:14;15.30;66.40
56137;DHT22;42008;52.934;5.884;2022-07-01T02:56:39;14.80;55.90
56137;DHT22;42008;52.934;5.884;2022-07-01T02:59:05;13.10;61.00
56137;DHT22;42008;52.934;5.884;2022-07-01T03:01:30;15.00;63.60
56137;DHT22;42008;52.934;5.884;2022-07-01T03:03:56;14.10;75.30
56137;DHT22;42008;52.934;5.884;2022-07-01T03:06:22;15.20;84.20
56137;DHT22;42008;52.934;5.884;2022-07-01T03:08:47;13.90;83.50
56137;DHT22;42008;52.934;5.884;2022-07-01T03:11:13;13.90;87.80
56137;DHT22;42008;52.934;5.884;2022-07-01T03:13:38;15.30;92.20
56137;DHT22;42008;52.934;5.884;2022-07-01T03:16:04;15.30;91.80
56137;DHT22;42008;52.934;5.884;2022-07-01T03:18:29;14.60;91.10
56137;DHT22;42008;52.934;5.884;2022-07-01T03:20:55;15.50;92.40
56137;DHT22;42008;52.934;5.884;2022-07-01T03:23:20;15.40;91.60
56137;DHT22;42008;52.934;5.884;2022-07-01T03:25:46;13.90;90.90
56137;DHT22;42008;52.934;5.884;2022-07-01T03:28:12;15.20;91.10
56137;DHT22;42008;52.934;5.884;2022-07-01T03:30:37;15.00;85.60
56137;DHT22;42008;52.934;5.884;2022-07-01T03:33:03;15.40;85.50
56137;DHT22;42008;52.934;5.884;2022-07-01T03:35:28;15.20;74.70
56137;DHT22;42008;52.934;5.884;2022-07-01T03:38:11;14.00;59.80
56137;DHT22;42008;52.934;5.884;2022-07-01T03:40:37;15.10;53.60
56137;DHT22;42008;52.934;5.884;2022-07-01T03:43:04;15.30;45.60
56137;DHT22;42008;52.934;5.884;2022-07-01T03:45:29;15.50;44.70
56137;DHT22;42008;52.934;5.884;2022-07-01T03:47:56;15.40;50.00
56137;DHT22;42008;52.934;5.884;2022-07-01T03:50:23;15.30;39.80
56137;DHT22;42008;52.934;5.884;2022-07-01T03:52:49;15.10;35.30
56137;DHT22;42008;52.934;5.884;2022-07-01T03:55:35;14.00;40.80
56137;DHT22;42008;52.934;5.884;2022-07-01T03:58:01;15.30;43.00
56137;DHT22;42008;52.934;5.884;2022-07-01T04:00:27;15.00;40.20
56137;DHT22;42008;52.934;5.884;2022-07-01T04:02:53;14.80;38.90
56137;DHT22;42008;52.934;5.884;2022-07-01T04:05:18;15.30;31.20
56137;DHT22;42008;52.934;5.884;2022-07-01T04:07:44;15.10;30.00
56137;DHT22;42008;52.934;5.884;2022-07-01T04:10:10;15.20;26.50
56137;DHT22;42008;52.934;5.884;2022-07-01T04:12:35;14.90;33.20
56137;DHT22;42008;52.934;5.884;2022-07-01T04:15:01;15.30;30.70
56137;DHT22;42008;52.934;5.884;2022-07-01T04:17:28;14.70;38.40
56137;DHT22;42008;52.934;5.884;2022-07-01T04:19:53;15.20;52.30
56137;DHT22;42008;52.934;5.884;2022-07-01T04:22:19;14.80;47.50
56137;DHT22;42008;52.934;5.884;2022-07-01T04:25:02;14.80;37.50
56137;DHT22;42008;52.934;5.884;2022-07-01T04:27:29;15.20;38.40
56137;DHT22;42008;52.934;5.884;2022-07-01T04:29:55;15.20;35.20
56137;DHT22;42008;52.934;5.884;2022-07-01T04:32:21;15.10;31.80
56137;DHT22;42008;52.934;5.884;2022-07-01T04:34:46;15.20;32.80
56137;DHT22;42008;52.934;5.884;2022-07-01T04:37:12;15.50;20.00
56137;DHT22;42008;52.934;5.884;2022-07-01T04:39:38;15.00;22.30
56137;DHT22;42008;52.934;5.884;2022-07-01T04:42:04;15.20;24.20
56137;DHT22;42008;52.934;5.884;2022-07-01T04:44:34;14.60;22.30
56137;DHT22;42008;52.934;5.884;2022-07-01T04:47:01;15.20;14.00
56137;DHT22;42008;52.934;5.884;2022-07-01T04:49:27;15.30;18.30
56137;DHT22;42008;52.934;5.884;2022-07-01T04:51:54;15.40;23.10
56137;DHT22;42008;52.934;5.884;2022-07-01T04:54:20;15.30;29.60
56137;DHT22;42008;52.934;5.884;2022-07-01T04:56:46;15.10;13.20
56137;DHT22;42008;52.934;5.884;2022-07-01T04:59:12;15.90;13.00
56137;DHT22;42008;52.934;5.884;2022-07-01T05:01:39;15.40;10.90
56137;DHT22;42008;52.934;5.884;2022-07-01T05:04:05;15.60;3.70
56137;DHT22;42008;52.934;5.884;2022-07-01T05:06:31;15.20;5.10
56137;DHT22;42008;52.934;5.884;2022-07-01T05:08:56;15.40;5.70
56137;DHT22;42008;52.934;5.884;2022-07-01T05:11:22;15.30;1.00
56137;DHT22;42008;52.934;5.884;2022-07-01T05:13:47;15.40;1.00
56137;DHT22;42008;52.934;5.884;2022-07-01T05:16:13;15.90;1.00
56137;DHT22;42008;52.934;5.884;2022-07-01T05:18:39;15.50;1.00
56137;DHT22;42008;52.934;5.884;2022-07-01T05:21:23;15.50;1.00
56137;DHT22;42008;52.934;5.884;2022-07-01T05:24:08;15.70;1.00
56137;DHT22;42008;52.934;5.884;2022-07-01T05:26:34;15.80;1.00
56137;DHT22;42008;52.934;5.884;2022-07-01T05:29:00;16.60;1.00
56137;DHT22;42008;52.934;5.884;2022-07-01T05:31:25;15.70;1.00
56137;DHT22;42008;52.934;5.884;2022-07-01T05:33:52;15.70;1.00
56137;DHT22;42008;52.934;5.884;2022-07-01T05:36:17;16.00;1.00
56137;DHT22;42008;52.934;5.884;2022-07-01T05:38:43;15.80;1.00
56137;DHT22;42008;52.934;5.884;2022-07-01T05:41:09;17.00;1.00
56137;DHT22;42008;52.934;5.884;2022-07-01T05:43:34;17.10;1.00
56137;DHT22;42008;52.934;5.884;2022-07-01T05:46:01;17.10;1.00
56137;DHT22;42008;52.934;5.884;2022-07-01T05:48:26;16.90;1.00
56137;DHT22;42008;52.934;5.884;2022-07-01T05:50:52;15.70;1.00
56137;DHT22;42008;52.934;5.884;2022-07-01T05:53:18;15.60;1.00
56137;DHT22;42008;52.934;5.884;2022-07-01T05:55:44;15.40;1.00
56137;DHT22;42008;52.934;5.884;2022-07-01T05:58:13;15.70;1.00
56137;DHT22;42008;52.934;5.884;2022-07-01T06:00:39;15.60;1.00
56137;DHT22;42008;52.934;5.884;2022-07-01T06:03:09;16.60;1.00
56137;DHT22;42008;52.934;5.884;2022-07-01T06:05:34;15.70;1.00
56137;DHT22;42008;52.934;5.884;2022-07-01T06:08:00;17.30;1.00
56137;DHT22;42008;52.934;5.884;2022-07-01T06:10:26;15.70;1.00
56137;DHT22;42008;52.934;5.884;2022-07-01T06:12:51;16.60;1.00
56137;DHT22;42008;52.934;5.884;2022-07-01T06:15:17;15.50;1.00
56137;DHT22;42008;52.934;5.884;2022-07-01T06:17:43;15.60;1.00
56137;DHT22;42008;52.934;5.884;2022-07-01T06:20:09;16.90;1.00
56137;DHT22;42008;52.934;5.884;2022-07-01T06:22:34;16.40;1.00
56137;DHT22;42008;52.934;5.884;2022-07-01T06:25:01;15.60;1.00
56137;DHT22;42008;52.934;5.884;2022-07-01T06:27:26;15.60;1.00
56137;DHT22;42008;52.934;5.884;2022-07-01T06:29:52;15.80;1.00
56137;DHT22;42008;52.934;5.884;2022-07-01T06:32:18;16.90;1.00
56137;DHT22;42008;52.934;5.884;2022-07-01T06:34:44;15.70;1.00
56137;DHT22;42008;52.934;5.884;2022-07-01T06:37:10;15.70;1.00
56137;DHT22;42008;52.934;5.884;2022-07-01T06:39:35;15.90;1.00
56137;DHT22;42008;52.934;5.884;2022-07-01T06:42:01;16.90;1.00
56137;DHT22;42008;52.934;5.884;2022-07-01T06:44:27;16.80;1.00
56137;DHT22;42008;52.934;5.884;2022-07-01T06:46:52;16.80;1.00
56137;DHT22;42008;52.934;5.884;2022-07-01T06:49:18;15.80;1.00
56137;DHT22;42008;52.934;5.884;2022-07-01T06:51:44;15.80;1.00
56137;DHT22;42008;52.934;5.884;2022-07-01T06:54:09;17.10;1.00
56137;DHT22;42008;52.934;5.884;2022-07-01T06:56:35;15.80;1.00
56137;DHT22;42008;52.934;5.884;2022-07-01T06:59:01;16.00;1.00
56137;DHT22;42008;52.934;5.884;2022-07-01T07:01:27;15.90;1.00
56137;DHT22;42008;52.934;5.884;2022-07-01T07:03:53;15.90;1.00
56137;DHT22;42008;52.934;5.884;2022-07-01T07:06:19;15.70;1.00
56137;DHT22;42008;52.934;5.884;2022-07-01T07:08:44;16.00;1.00
56137;DHT22;42008;52.934;5.884;2022-07-01T07:11:10;15.60;3.80
56137;DHT22;42008;52.934;5.884;2022-07-01T07:13:36;17.00;5.30
56137;DHT22;42008;52.934;5.884;2022-07-01T07:16:02;17.20;2.90
56137;DHT22;42008;52.934;5.884;2022-07-01T07:18:28;16.60;6.10
56137;DHT22;42008;52.934;5.884;2022-07-01T07:20:54;15.70;34.50
56137;DHT22;42008;52.934;5.884;2022-07-01T07:23:20;15.80;38.10
56137;DHT22;42008;52.934;5.884;2022-07-01T07:25:46;15.70;17.50
56137;DHT22;42008;52.934;5.884;2022-07-01T07:28:11;16.10;1.00
56137;DHT22;42008;52.934;5.884;2022-07-01T07:30:37;16.40;1.00
56137;DHT22;42008;52.934;5.884;2022-07-01T07:33:03;17.00;1.00
56137;DHT22;42008;52.934;5.884;2022-07-01T07:35:29;17.10;1.00
56137;DHT22;42008;52.934;5.884;2022-07-01T07:37:54;17.60;1.00
56137;DHT22;42008;52.934;5.884;2022-07-01T07:40:20;15.90;1.00
56137;DHT22;42008;52.934;5.884;2022-07-01T07:42:47;17.50;1.00
56137;DHT22;42008;52.934;5.884;2022-07-01T07:45:13;17.20;1.00
56137;DHT22;42008;52.934;5.884;2022-07-01T07:47:42;17.40;1.00
56137;DHT22;42008;52.934;5.884;2022-07-01T07:50:09;17.60;1.00
56137;DHT22;42008;52.934;5.884;2022-07-01T07:52:36;17.70;1.00
56137;DHT22;42008;52.934;5.884;2022-07-01T07:55:02;17.30;1.00
56137;DHT22;42008;52.934;5.884;2022-07-01T07:57:28;17.10;1.00
56137;DHT22;42008;52.934;5.884;2022-07-01T07:59:53;17.20;1.00
56137;DHT22;42008;52.934;5.884;2022-07-01T08:02:19;17.90;1.00
56137;DHT22;42008;52.934;5.884;2022-07-01T08:04:45;18.00;1.00
56137;DHT22;42008;52.934;5.884;2022-07-01T08:07:10;18.10;1.00
56137;DHT22;42008;52.934;5.884;2022-07-01T08:09:36;17.70;1.00
56137;DHT22;42008;52.934;5.884;2022-07-01T08:12:03;17.70;1.00
56137;DHT22;42008;52.934;5.884;2022-07-01T08:14:28;17.40;1.00
56137;DHT22;42008;52.934;5.884;2022-07-01T08:16:54;18.00;1.00
56137;DHT22;42008;52.934;5.884;2022-07-01T08:19:20;18.10;1.00
56137;DHT22;42008;52.934;5.884;2022-07-01T08:21:45;17.60;1.00
56137;DHT22;42008;52.934;5.884;2022-07-01T08:24:11;17.50;1.00
56137;DHT22;42008;52.934;5.884;2022-07-01T08:26:36;17.60;1.00
56137;DHT22;42008;52.934;5.884;2022-07-01T08:29:02;17.30;1.00
56137;DHT22;42008;52.934;5.884;2022-07-01T08:31:28;17.90;1.00
56137;DHT22;42008;52.934;5.884;2022-07-01T08:33:55;17.90;1.00
56137;DHT22;42008;52.934;5.884;2022-07-01T08:36:20;17.80;1.00
56137;DHT22;42008;52.934;5.884;2022-07-01T08:38:46;17.90;1.00
56137;DHT22;42008;52.934;5.884;2022-07-01T08:41:14;18.40;1.00
56137;DHT22;42008;52.934;5.884;2022-07-01T08:43:39;20.30;1.00
56137;DHT22;42008;52.934;5.884;2022-07-01T08:46:07;19.50;1.00
56137;DHT22;42008;52.934;5.884;2022-07-01T08:48:33;18.20;1.00
56137;DHT22;42008;52.934;5.884;2022-07-01T08:50:59;18.20;1.00
56137;DHT22;42008;52.934;5.884;2022-07-01T08:53:30;17.70;1.00
56137;DHT22;42008;52.934;5.884;2022-07-01T08:55:55;17.90;1.00
56137;DHT22;42008;52.934;5.884;2022-07-01T08:58:39;18.00;1.00
56137;DHT22;42008;52.934;5.884;2022-07-01T09:01:19;18.50;1.00
56137;DHT22;42008;52.934;5.884;2022-07-01T09:03:50;18.90;1.00
56137;DHT22;42008;52.934;5.884;2022-07-01T09:06:18;18.50;1.00
56137;DHT22;42008;52.934;5.884;2022-07-01T09:08:45;18.40;1.00
56137;DHT22;42008;52.934;5.884;2022-07-01T09:11:22;18.60;1.00
56137;DHT22;42008;52.934;5.884;2022-07-01T09:14:11;18.60;1.00
56137;DHT22;42008;52.934;5.884;2022-07-01T09:16:44;19.40;1.00
56137;DHT22;42008;52.934;5.884;2022-07-01T09:19:12;18.70;1.00
56137;DHT22;42008;52.934;5.884;2022-07-01T09:21:39;18.40;1.00
56137;DHT22;42008;52.934;5.884;2022-07-01T09:24:29;18.30;1.00
56137;DHT22;42008;52.934;5.884;2022-07-01T09:27:00;19.30;1.00
56137;DHT22;42008;52.934;5.884;2022-07-01T09:29:32;18.70;1.00
56137;DHT22;42008;52.934;5.884;2022-07-01T09:32:00;18.80;1.00
56137;DHT22;42008;52.934;5.884;2022-07-01T09:34:27;19.80;1.00
56137;DHT22;42008;52.934;5.884;2022-07-01T09:36:57;19.80;1.00
56137;DHT22;42008;52.934;5.884;2022-07-01T09:39:24;18.30;1.00
56137;DHT22;42008;52.934;5.884;2022-07-01T09:41:50;18.30;1.00
56137;DHT22;42008;52.934;5.884;2022-07-01T09:44:18;17.90;1.00
56137;DHT22;42008;52.934;5.884;2022-07-01T09:46:55;17.80;1.00
56137;DHT22;42008;52.934;5.884;2022-07-01T09:49:22;17.30;1.00
56137;DHT22;42008;52.934;5.884;2022-07-01T09:51:49;17.40;1.00
56137;DHT22;42008;52.934;5.884;2022-07-01T09:54:15;16.90;1.00
56137;DHT22;42008;52.934;5.884;2022-07-01T09:56:41;16.90;1.00
56137;DHT22;42008;52.934;5.884;2022-07-01T09:59:06;17.00;1.00
56137;DHT22;42008;52.934;5.884;2022-07-01T10:01:32;17.60;1.00
56137;DHT22;42008;52.934;5.884;2022-07-01T10:04:00;16.90;1.00
56137;DHT22;42008;52.934;5.884;2022-07-01T10:10:02;17.00;1.00
56137;DHT22;42008;52.934;5.884;2022-07-01T10:12:39;17.20;1.00
56137;DHT22;42008;52.934;5.884;2022-07-01T10:15:08;19.30;1.00
56137;DHT22;42008;52.934;5.884;2022-07-01T10:17:44;18.00;1.00
56137;DHT22;42008;52.934;5.884;2022-07-01T10:20:18;17.30;1.00
56137;DHT22;42008;52.934;5.884;2022-07-01T10:22:45;17.50;1.00
56137;DHT22;42008;52.934;5.884;2022-07-01T10:28:14;19.20;1.00
56137;DHT22;42008;52.934;5.884;2022-07-01T10:41:35;17.90;1.00
56137;DHT22;42008;52.934;5.884;2022-07-01T10:44:13;17.90;1.00
56137;DHT22;42008;52.934;5.884;2022-07-01T10:46:50;18.60;1.00
56137;DHT22;42008;52.934;5.884;2022-07-01T10:52:08;18.60;1.00
56137;DHT22;42008;52.934;5.884;2022-07-01T10:59:45;20.00;1.00
56137;DHT22;42008;52.934;5.884;2022-07-01T11:04:47;20.30;1.00
56137;DHT22;42008;52.934;5.884;2022-07-01T11:07:13;20.10;1.00
56137;DHT22;42008;52.934;5.884;2022-07-01T11:09:39;18.50;1.00
56137;DHT22;42008;52.934;5.884;2022-07-01T11:12:06;18.30;1.00
56137;DHT22;42008;52.934;5.884;2022-07-01T11:14:40;18.90;1.00
56137;DHT22;42008;52.934;5.884;2022-07-01T11:17:07;19.50;1.00
56137;DHT22;42008;52.934;5.884;2022-07-01T11:19:33;20.50;1.00
56137;DHT22;42008;52.934;5.884;2022-07-01T11:21:59;18.50;1.00
56137;DHT22;42008;52.934;5.884;2022-07-01T11:24:25;19.40;1.00
56137;DHT22;42008;52.934;5.884;2022-07-01T11:26:55;20.20;1.00
56137;DHT22;42008;52.934;5.884;2022-07-01T11:29:26;20.70;1.00
56137;DHT22;42008;52.934;5.884;2022-07-01T11:31:52;20.90;1.00
56137;DHT22;42008;52.934;5.884;2022-07-01T11:34:18;19.00;1.00
56137;DHT22;42008;52.934;5.884;2022-07-01T11:36:46;18.90;1.00
56137;DHT22;42008;52.934;5.884;2022-07-01T11:39:30;19.10;1.00
56137;DHT22;42008;52.934;5.884;2022-07-01T11:42:01;20.40;1.00
56137;DHT22;42008;52.934;5.884;2022-07-01T11:44:30;21.10;1.00
56137;DHT22;42008;52.934;5.884;2022-07-01T11:46:56;20.70;1.00
56137;DHT22;42008;52.934;5.884;2022-07-01T11:49:22;20.80;1.00
56137;DHT22;42008;52.934;5.884;2022-07-01T11:52:16;20.70;1.00
56137;DHT22;42008;52.934;5.884;2022-07-01T11:54:45;20.80;1.00
56137;DHT22;42008;52.934;5.884;2022-07-01T11:57:20;21.20;1.00
56137;DHT22;42008;52.934;5.884;2022-07-01T11:59:48;20.50;1.00
56137;DHT22;42008;52.934;5.884;2022-07-01T12:02:15;20.90;1.00
56137;DHT22;42008;52.934;5.884;2022-07-01T12:04:42;21.20;1.00
56137;DHT22;42008;52.934;5.884;2022-07-01T12:07:09;21.00;1.00
56137;DHT22;42008;52.934;5.884;2022-07-01T12:09:36;21.00;1.00
56137;DHT22;42008;52.934;5.884;2022-07-01T12:12:02;20.80;1.00
56137;DHT22;42008;52.934;5.884;2022-07-01T12:14:31;20.50;1.00
56137;DHT22;42008;52.934;5.884;2022-07-01T12:16:59;20.90;1.00
56137;DHT22;42008;52.934;5.884;2022-07-01T12:19:41;20.70;1.00
56137;DHT22;42008;52.934;5.884;2022-07-01T12:22:17;20.60;1.00
56137;DHT22;42008;52.934;5.884;2022-07-01T12:24:51;22.00;1.00
56137;DHT22;42008;52.934;5.884;2022-07-01T12:27:20;21.20;99.90
56137;DHT22;42008;52.934;5.884;2022-07-01T12:32:14;20.60;1.00
56137;DHT22;42008;52.934;5.884;2022-07-01T12:34:46;20.50;1.00
56137;DHT22;42008;52.934;5.884;2022-07-01T12:37:16;20.50;1.00
56137;DHT22;42008;52.934;5.884;2022-07-01T12:39:46;19.60;1.00
56137;DHT22;42008;52.934;5.884;2022-07-01T12:42:26;20.70;1.00
56137;DHT22;42008;52.934;5.884;2022-07-01T12:44:57;20.40;1.00
56137;DHT22;42008;52.934;5.884;2022-07-01T12:50:12;21.20;1.00
56137;DHT22;42008;52.934;5.884;2022-07-01T12:52:39;20.50;1.00
56137;DHT22;42008;52.934;5.884;2022-07-01T12:55:17;20.80;1.00
56137;DHT22;42008;52.934;5.884;2022-07-01T12:57:47;20.20;1.00
56137;DHT22;42008;52.934;5.884;2022-07-01T13:00:14;20.60;1.00
56137;DHT22;42008;52.934;5.884;2022-07-01T13:02:40;21.90;1.00
56137;DHT22;42008;52.934;5.884;2022-07-01T13:05:05;20.70;1.00
56137;DHT22;42008;52.934;5.884;2022-07-01T13:07:31;22.00;99.90
56137;DHT22;42008;52.934;5.884;2022-07-01T13:09:57;20.70;99.90
56137;DHT22;42008;52.934;5.884;2022-07-01T13:12:22;20.10;1.00
56137;DHT22;42008;52.934;5.884;2022-07-01T13:14:48;20.30;1.00
56137;DHT22;42008;52.934;5.884;2022-07-01T13:17:13;20.00;1.00
56137;DHT22;42008;52.934;5.884;2022-07-01T13:19:39;20.30;1.00
56137;DHT22;42008;52.934;5.884;2022-07-01T13:22:04;20.70;1.00
56137;DHT22;42008;52.934;5.884;2022-07-01T13:24:30;20.80;1.00
56137;DHT22;42008;52.934;5.884;2022-07-01T13:26:56;21.10;1.00
56137;DHT22;42008;52.934;5.884;2022-07-01T13:29:22;21.40;99.90
56137;DHT22;42008;52.934;5.884;2022-07-01T13:31:48;21.50;1.00
56137;DHT22;42008;52.934;5.884;2022-07-01T13:34:13;22.70;1.00
56137;DHT22;42008;52.934;5.884;2022-07-01T13:36:39;22.70;99.90
56137;DHT22;42008;52.934;5.884;2022-07-01T13:39:05;21.20;99.90
56137;DHT22;42008;52.934;5.884;2022-07-01T13:41:30;21.10;99.90
56137;DHT22;42008;52.934;5.884;2022-07-01T13:43:56;21.10;1.00
56137;DHT22;42008;52.934;5.884;2022-07-01T13:46:21;21.00;1.00
56137;DHT22;42008;52.934;5.884;2022-07-01T13:48:47;22.50;99.90
56137;DHT22;42008;52.934;5.884;2022-07-01T13:51:13;22.80;99.90
56137;DHT22;42008;52.934;5.884;2022-07-01T13:53:39;23.10;99.90
56137;DHT22;42008;52.934;5.884;2022-07-01T13:56:05;21.70;1.00
56137;DHT22;42008;52.934;5.884;2022-07-01T13:58:30;21.50;99.90
56137;DHT22;42008;52.934;5.884;2022-07-01T14:00:56;21.10;99.90
56137;DHT22;42008;52.934;5.884;2022-07-01T14:03:21;21.90;1.00
56137;DHT22;42008;52.934;5.884;2022-07-01T14:05:47;20.40;1.00
56137;DHT22;42008;52.934;5.884;2022-07-01T14:08:13;20.60;1.00
56137;DHT22;42008;52.934;5.884;2022-07-01T14:10:40;20.80;1.00
56137;DHT22;42008;52.934;5.884;2022-07-01T14:13:06;20.40;1.00
56137;DHT22;42008;52.934;5.884;2022-07-01T14:15:32;20.80;1.00
56137;DHT22;42008;52.934;5.884;2022-07-01T14:17:57;20.80;99.90
56137;DHT22;42008;52.934;5.884;2022-07-01T14:20:23;21.20;99.90
56137;DHT22;42008;52.934;5.884;2022-07-01T14:22:49;22.70;99.90
56137;DHT22;42008;52.934;5.884;2022-07-01T14:25:14;21.30;99.90
56137;DHT22;42008;52.934;5.884;2022-07-01T14:27:40;19.80;1.00
56137;DHT22;42008;52.934;5.884;2022-07-01T14:30:06;20.10;1.00
56137;DHT22;42008;52.934;5.884;2022-07-01T14:32:34;19.60;1.00
56137;DHT22;42008;52.934;5.884;2022-07-01T14:34:59;20.00;1.00
56137;DHT22;42008;52.934;5.884;2022-07-01T14:37:26;20.10;1.00
56137;DHT22;42008;52.934;5.884;2022-07-01T14:39:52;20.10;1.00
56137;DHT22;42008;52.934;5.884;2022-07-01T14:42:21;20.40;1.00
56137;DHT22;42008;52.934;5.884;2022-07-01T14:44:47;20.90;1.00
56137;DHT22;42008;52.934;5.884;2022-07-01T14:47:15;22.40;1.00
56137;DHT22;42008;52.934;5.884;2022-07-01T14:49:40;23.40;99.90
56137;DHT22;42008;52.934;5.884;2022-07-01T14:52:06;21.60;99.90
56137;DHT22;42008;52.934;5.884;2022-07-01T14:54:31;20.20;1.00
56137;DHT22;42008;52.934;5.884;2022-07-01T14:56:57;20.70;1.00
56137;DHT22;42008;52.934;5.884;2022-07-01T14:59:23;21.10;1.00
56137;DHT22;42008;52.934;5.884;2022-07-01T15:01:48;22.80;1.00
56137;DHT22;42008;52.934;5.884;2022-07-01T15:04:14;22.90;99.90
56137;DHT22;42008;52.934;5.884;2022-07-01T15:06:39;21.40;99.90
56137;DHT22;42008;52.934;5.884;2022-07-01T15:09:05;21.10;1.00
56137;DHT22;42008;52.934;5.884;2022-07-01T15:11:31;20.70;1.00
56137;DHT22;42008;52.934;5.884;2022-07-01T15:13:58;23.30;99.90
56137;DHT22;42008;52.934;5.884;2022-07-01T15:16:24;21.00;99.90
56137;DHT22;42008;52.934;5.884;2022-07-01T15:18:51;20.70;1.00
56137;DHT22;42008;52.934;5.884;2022-07-01T15:21:18;20.40;1.00
56137;DHT22;42008;52.934;5.884;2022-07-01T15:23:44;20.20;1.00
56137;DHT22;42008;52.934;5.884;2022-07-01T15:26:10;18.60;1.00
56137;DHT22;42008;52.934;5.884;2022-07-01T15:28:36;20.50;1.00
56137;DHT22;42008;52.934;5.884;2022-07-01T15:31:02;20.10;1.00
56137;DHT22;42008;52.934;5.884;2022-07-01T15:33:28;21.60;1.00
56137;DHT22;42008;52.934;5.884;2022-07-01T15:35:54;23.70;1.00
56137;DHT22;42008;52.934;5.884;2022-07-01T15:38:20;23.60;99.90
56137;DHT22;42008;52.934;5.884;2022-07-01T15:40:45;24.30;99.90
56137;DHT22;42008;52.934;5.884;2022-07-01T15:43:13;24.20;99.90
56137;DHT22;42008;52.934;5.884;2022-07-01T15:45:38;23.70;99.90
56137;DHT22;42008;52.934;5.884;2022-07-01T15:48:04;23.80;99.90
56137;DHT22;42008;52.934;5.884;2022-07-01T15:50:31;23.20;99.90
56137;DHT22;42008;52.934;5.884;2022-07-01T15:52:56;24.10;99.90
56137;DHT22;42008;52.934;5.884;2022-07-01T15:55:22;24.00;99.90
56137;DHT22;42008;52.934;5.884;2022-07-01T15:57:48;23.90;99.90
56137;DHT22;42008;52.934;5.884;2022-07-01T16:00:15;22.80;99.90
56137;DHT22;42008;52.934;5.884;2022-07-01T16:02:41;22.60;99.90
56137;DHT22;42008;52.934;5.884;2022-07-01T16:05:08;24.20;99.90
56137;DHT22;42008;52.934;5.884;2022-07-01T16:07:36;23.00;99.90
56137;DHT22;42008;52.934;5.884;2022-07-01T16:10:04;22.50;99.90
56137;DHT22;42008;52.934;5.884;2022-07-01T16:12:31;24.20;99.90